OOKB METAR and TAF | Updated Today

OOKB METAR

Khasab Air Base

Observation time: 43 min. ago

OOKB 200550Z 02008KT 6000 NSC 34/20 Q1003 NOSIG

Need help? Read our tutorial on how to read METARs or read the parsed version below.

Khasab Air Base (OOKB) METAR

  • Weather conditions on Fri, 20 May 2022 05:50:00 +0000 (43 min. ago):
  • Present conditions: Dry
  • Clouds: No significant clouds are observed
  • Visibility: 6000 meters
  • Wind: 20 degrees at 8 knots
  • Temperature: 34 celsius
  • Dew point: 20 celsius
  • Pressure: 1003 millibars
  • Remarks: None


Useful to know...